Time;durP1;ratioP1;P1;durP2;ratioP2;P2;SDS_P1;SDS_P2;PMS_P1;PMS_P2;Temp;Humidity;BMP_temperature;BMP_pressure;BME280_temperature;BME280_humidity;BME280_pressure;Samples;Min_cycle;Max_cycle;Signal;HPM_P1;HPM_P2
2022/05/19 00:00:22;;;;;;;0.95;0.30;;;;;;;19.50;90.65;101059.19;7388106;19;20018;-69
2022/05/19 00:02:49;;;;;;;2.55;0.50;;;;;;;19.42;90.02;101062.00;7389242;19;20043;-67
2022/05/19 00:05:17;;;;;;;3.72;0.40;;;;;;;19.38;90.03;101060.78;7390549;19;20082;-69
2022/05/19 00:07:45;;;;;;;2.45;0.60;;;;;;;19.36;90.74;101064.66;7390900;19;20366;-68
2022/05/19 00:10:12;;;;;;;3.70;0.75;;;;;;;19.34;91.42;101058.72;7391354;19;20388;-69
2022/05/19 00:12:39;;;;;;;3.85;0.43;;;;;;;19.32;91.56;101066.94;7390476;19;20011;-68
2022/05/19 00:15:07;;;;;;;1.92;0.40;;;;;;;19.29;91.50;101070.00;7387239;19;20685;-69
2022/05/19 00:17:34;;;;;;;6.55;3.60;;;;;;;19.31;92.83;101067.94;7388971;19;20010;-68
2022/05/19 00:20:02;;;;;;;1.52;0.50;;;;;;;19.31;93.06;101072.47;7394219;19;20033;-68
2022/05/19 00:22:30;;;;;;;4.13;0.73;;;;;;;19.29;92.57;101070.00;7391843;19;20011;-68
2022/05/19 00:24:57;;;;;;;2.13;0.38;;;;;;;19.26;92.16;101072.25;7391612;19;20011;-68
2022/05/19 00:27:24;;;;;;;2.65;0.90;;;;;;;19.23;93.07;101076.97;7390916;19;20011;-69
2022/05/19 00:29:51;;;;;;;1.83;0.70;;;;;;;19.24;92.69;101080.47;7388257;19;20046;-69
2022/05/19 00:32:18;;;;;;;1.75;0.50;;;;;;;19.21;91.84;101068.34;7388821;19;20014;-68
2022/05/19 00:34:45;;;;;;;4.35;0.50;;;;;;;19.16;90.77;101065.47;7387681;19;20759;-70
2022/05/19 00:37:13;;;;;;;1.83;0.60;;;;;;;19.11;90.49;101069.75;7392582;19;20088;-69
2022/05/19 00:39:40;;;;;;;1.80;0.68;;;;;;;19.10;91.09;101066.28;7394659;19;20015;-68
2022/05/19 00:45:01;;;;;;;1.88;0.50;;;;;;;19.07;90.99;101068.53;7390139;19;20014;-69
2022/05/19 00:47:36;;;;;;;2.90;0.90;;;;;;;19.05;91.27;101062.56;7387469;19;20037;-67
2022/05/19 00:50:04;;;;;;;15.07;7.85;;;;;;;19.04;91.27;101051.09;7391477;19;20027;-69
2022/05/19 00:52:39;;;;;;;3.13;0.90;;;;;;;19.04;90.96;101066.28;7391734;19;20010;-68
2022/05/19 00:55:10;;;;;;;2.22;0.68;;;;;;;19.02;91.10;101045.13;7387994;19;20464;-68
2022/05/19 00:57:43;;;;;;;3.10;0.77;;;;;;;18.99;90.47;101039.38;7392796;19;20014;-68
2022/05/19 01:00:14;;;;;;;5.45;1.20;;;;;;;18.93;90.76;101035.69;7388619;19;20033;-68
2022/05/19 01:02:47;;;;;;;3.08;0.70;;;;;;;18.85;91.26;101035.84;7388997;19;20014;-69
2022/05/19 01:05:17;;;;;;;;;;;;;;;18.80;91.32;101035.63;7389561;19;20040;-69
2022/05/19 01:07:52;;;;;;;2.63;0.70;;;;;;;18.77;91.40;101034.22;7387964;19;19918;-68
2022/05/19 01:10:20;;;;;;;3.92;0.90;;;;;;;18.73;91.35;101038.31;7390012;19;20021;-69
2022/05/19 01:13:11;;;;;;;3.47;0.80;;;;;;;18.66;91.32;101023.28;7388247;19;20018;-70
2022/05/19 01:15:43;;;;;;;3.63;0.95;;;;;;;18.64;91.88;101034.16;7390487;19;20038;-69
2022/05/19 01:18:13;;;;;;;4.43;0.82;;;;;;;18.63;92.39;101031.72;7390210;19;20013;-69
2022/05/19 01:20:40;;;;;;;4.13;0.80;;;;;;;18.57;91.63;101038.66;7390860;19;20472;-68
2022/05/19 01:23:15;;;;;;;4.90;1.00;;;;;;;18.55;91.18;101039.88;7388553;19;20017;-70
2022/05/19 01:25:46;;;;;;;5.78;0.68;;;;;;;18.54;91.63;101033.72;7388743;19;20033;-69
2022/05/19 01:28:14;;;;;;;3.28;0.77;;;;;;;18.52;91.27;101034.91;7388648;19;20467;-69
2022/05/19 01:30:41;;;;;;;3.85;1.10;;;;;;;18.50;91.49;101034.28;7385959;19;20007;-69
2022/05/19 01:33:09;;;;;;;3.58;1.00;;;;;;;18.52;92.34;101033.06;7387273;19;20015;-69
2022/05/19 01:35:36;;;;;;;3.65;0.80;;;;;;;18.49;91.22;101022.00;7387968;19;20038;-69
2022/05/19 01:38:08;;;;;;;4.28;0.70;;;;;;;18.46;90.26;101017.88;7387431;19;20011;-69
2022/05/19 01:40:47;;;;;;;3.88;1.10;;;;;;;18.43;90.11;101009.47;7387812;19;20403;-69
2022/05/19 01:43:42;;;;;;;6.20;0.70;;;;;;;18.38;90.04;101013.56;7389735;19;20011;-69
2022/05/19 01:46:21;;;;;;;4.05;1.35;;;;;;;18.39;91.72;101023.16;7385960;19;20027;-69
2022/05/19 01:48:52;;;;;;;2.75;0.95;;;;;;;18.39;90.61;101023.16;7390734;19;20031;-68
2022/05/19 01:51:26;;;;;;;2.63;0.90;;;;;;;18.38;90.47;101016.22;7391449;19;20022;-70
2022/05/19 01:54:02;;;;;;;2.42;0.77;;;;;;;18.36;90.33;101012.91;7389197;19;20015;-68
2022/05/19 01:56:36;;;;;;;1.83;0.70;;;;;;;18.34;89.79;101014.13;7390116;19;19999;-69
2022/05/19 01:59:07;;;;;;;12.70;7.03;;;;;;;18.36;90.94;101015.59;7386957;19;20014;-67
2022/05/19 02:01:35;;;;;;;3.22;0.95;;;;;;;18.37;91.30;101009.25;7390532;19;20357;-68
2022/05/19 02:04:09;;;;;;;4.75;0.90;;;;;;;18.38;90.25;101016.22;7387991;19;20484;-66
2022/05/19 02:06:42;;;;;;;7.20;1.00;;;;;;;18.32;89.32;101011.69;7383638;19;20018;-68
2022/05/19 02:09:18;;;;;;;5.68;1.45;;;;;;;18.32;88.81;101005.53;7385619;19;20343;-68
2022/05/19 02:11:50;;;;;;;3.90;1.30;;;;;;;18.28;89.17;101007.78;7388183;19;20022;-67
2022/05/19 02:14:34;;;;;;;6.35;1.92;;;;;;;18.29;90.50;101013.91;7386888;19;20424;-69
2022/05/19 02:17:04;;;;;;;3.10;1.17;;;;;;;18.31;90.91;101010.03;7387739;19;20025;-69
2022/05/19 02:19:36;;;;;;;5.05;1.10;;;;;;;18.27;90.87;101003.47;7388176;19;20042;-67
2022/05/19 02:22:04;;;;;;;5.95;1.00;;;;;;;18.19;90.60;101006.28;7386794;19;20518;-68
2022/05/19 02:24:35;;;;;;;3.95;0.90;;;;;;;18.15;90.60;101002.38;7386454;19;20026;-70
2022/05/19 02:27:08;;;;;;;6.28;1.48;;;;;;;18.16;90.95;101004.03;7397968;19;20548;-69
2022/05/19 02:29:36;;;;;;;4.13;1.85;;;;;;;18.18;92.09;101001.16;7393177;19;20018;-68
2022/05/19 02:32:03;;;;;;;3.70;1.05;;;;;;;18.18;92.16;101011.81;7393432;19;20468;-68
2022/05/19 02:34:30;;;;;;;5.03;1.10;;;;;;;18.17;92.23;101020.81;7393814;19;20124;-70
2022/05/19 02:36:58;;;;;;;3.35;1.05;;;;;;;18.13;92.09;101027.56;7397333;19;20349;-68
2022/05/19 02:39:25;;;;;;;3.50;1.02;;;;;;;18.07;93.04;101037.16;7392944;19;20090;-68
2022/05/19 02:41:52;;;;;;;5.47;1.25;;;;;;;18.05;93.52;101044.53;7391730;19;20007;-69
2022/05/19 02:44:19;;;;;;;7.10;1.85;;;;;;;18.09;94.52;101045.78;7392796;19;20014;-68
2022/05/19 02:46:44;;;;;;;5.05;1.65;;;;;;;18.07;94.18;101052.31;7391615;19;20503;-67
2022/05/19 02:49:12;;;;;;;4.05;1.20;;;;;;;18.06;93.65;101048.84;7394515;19;20111;-67
2022/05/19 02:51:39;;;;;;;5.38;1.63;;;;;;;18.03;92.97;101051.88;7394462;19;20021;-68
2022/05/19 02:54:07;;;;;;;5.95;1.60;;;;;;;18.04;93.51;101058.03;7389282;19;20044;-68
2022/05/19 02:56:34;;;;;;;4.22;1.73;;;;;;;18.01;93.40;101053.94;7388614;19;20027;-68
2022/05/19 02:59:01;;;;;;;5.25;1.30;;;;;;;17.99;93.28;101052.47;7392223;19;20017;-69
2022/05/19 03:01:28;;;;;;;5.90;1.88;;;;;;;17.91;93.56;101062.28;7397050;19;20010;-69
2022/05/19 03:03:54;;;;;;;3.88;1.50;;;;;;;17.91;93.11;101064.94;7392121;19;20022;-67
2022/05/19 03:06:21;;;;;;;5.95;1.90;;;;;;;17.87;91.69;101068.19;7390917;19;20023;-67
2022/05/19 03:08:48;;;;;;;5.72;2.05;;;;;;;17.85;91.43;101080.84;7389786;19;20475;-67
2022/05/19 03:11:15;;;;;;;5.35;1.33;;;;;;;17.86;91.61;101075.34;7393950;19;20018;-68
2022/05/19 03:13:42;;;;;;;4.10;1.75;;;;;;;17.82;90.72;101073.25;7391446;19;20372;-68
2022/05/19 03:16:10;;;;;;;5.55;1.20;;;;;;;17.79;90.52;101076.28;7392656;19;20019;-69
2022/05/19 03:18:36;;;;;;;4.20;1.38;;;;;;;17.77;89.74;101095.16;7393706;19;20413;-69
2022/05/19 03:21:03;;;;;;;6.00;1.08;;;;;;;17.79;89.98;101102.91;7392096;19;20015;-69
2022/05/19 03:23:30;;;;;;;7.57;1.80;;;;;;;17.78;90.39;101101.28;7389651;19;20011;-70
2022/05/19 03:25:58;;;;;;;2.38;1.00;;;;;;;17.79;91.43;101095.75;7393731;19;20037;-68
2022/05/19 03:28:25;;;;;;;5.53;1.10;;;;;;;17.76;91.51;101100.66;7392096;19;20015;-69
2022/05/19 03:30:52;;;;;;;4.95;1.50;;;;;;;17.75;91.31;101101.66;7396240;19;20007;-69
2022/05/19 03:33:20;;;;;;;4.50;1.20;;;;;;;17.76;91.46;101113.97;7395896;19;20424;-69
2022/05/19 03:35:55;;;;;;;3.85;1.25;;;;;;;17.77;90.59;101107.63;7388847;19;20018;-67
2022/05/19 03:38:22;;;;;;;4.32;0.93;;;;;;;17.76;89.59;101105.97;7390989;19;20508;-70
2022/05/19 03:40:50;;;;;;;3.85;1.00;;;;;;;17.73;88.44;101104.50;7394262;19;20018;-69
2022/05/19 03:43:17;;;;;;;5.80;1.10;;;;;;;17.66;87.04;101102.81;7394143;19;20026;-69
2022/05/19 03:45:45;;;;;;;4.85;0.90;;;;;;;17.66;86.97;101103.66;7390572;19;20011;-68
2022/05/19 03:48:12;;;;;;;3.33;1.08;;;;;;;17.60;86.89;101075.13;7387622;19;20443;-69
2022/05/19 03:50:44;;;;;;;5.65;1.08;;;;;;;17.55;86.76;101066.88;7392849;19;20645;-68
2022/05/19 03:53:11;;;;;;;6.77;1.27;;;;;;;17.50;86.35;101087.91;7389254;19;20014;-68
2022/05/19 03:55:39;;;;;;;3.90;1.10;;;;;;;17.44;86.04;101094.00;7394279;19;20014;-70
2022/05/19 03:58:06;;;;;;;6.57;1.10;;;;;;;17.36;86.60;101102.94;7388252;19;20006;-67
2022/05/19 04:00:34;;;;;;;4.57;1.00;;;;;;;17.30;85.82;101111.69;7393066;19;20539;-68
2022/05/19 04:03:00;;;;;;;5.20;1.02;;;;;;;17.28;87.09;101132.31;7390644;19;20384;-67
2022/05/19 04:05:28;;;;;;;2.60;1.02;;;;;;;17.24;86.12;101130.22;7389339;19;20027;-67
2022/05/19 04:07:56;;;;;;;6.72;1.25;;;;;;;17.18;85.22;101133.63;7388108;19;20026;-67
2022/05/19 04:10:23;;;;;;;4.93;1.10;;;;;;;17.11;85.09;101130.91;7393147;19;20011;-70
2022/05/19 04:12:50;;;;;;;4.15;1.08;;;;;;;17.04;85.37;101132.66;7390225;19;20123;-69
2022/05/19 04:15:18;;;;;;;5.88;1.20;;;;;;;16.96;85.94;101127.47;7389772;19;20045;-68
2022/05/19 04:18:11;;;;;;;7.05;1.40;;;;;;;16.96;86.68;101127.47;7387417;19;20619;-68
2022/05/19 04:20:38;;;;;;;4.82;1.45;;;;;;;16.92;86.32;101132.31;7391123;19;20021;-67
2022/05/19 04:23:06;;;;;;;6.15;1.40;;;;;;;16.93;87.25;101139.28;7389398;19;20022;-68
2022/05/19 04:25:33;;;;;;;5.93;1.67;;;;;;;16.96;87.52;101148.75;7389225;19;20010;-69
2022/05/19 04:28:00;;;;;;;4.45;1.10;;;;;;;16.99;87.68;101137.72;7389871;19;20015;-69
2022/05/19 04:30:28;;;;;;;5.68;1.38;;;;;;;16.97;87.18;101134.41;7388809;19;20034;-68
2022/05/19 04:32:54;;;;;;;7.18;1.52;;;;;;;16.96;87.04;101140.78;7386199;19;20014;-69
2022/05/19 04:35:22;;;;;;;6.80;1.63;;;;;;;16.94;86.60;101140.13;7389924;19;20021;-69
2022/05/19 04:37:50;;;;;;;4.55;1.83;;;;;;;16.94;87.27;101151.59;7387552;19;20014;-70
2022/05/19 04:40:19;;;;;;;7.50;1.90;;;;;;;16.94;87.73;101154.25;7387095;19;20010;-69
2022/05/19 04:42:46;;;;;;;5.15;1.40;;;;;;;16.94;87.37;101150.75;7391290;19;20033;-67
2022/05/19 04:45:15;;;;;;;6.40;2.38;;;;;;;16.96;87.64;101159.38;7387703;19;20018;-68
2022/05/19 04:47:44;;;;;;;9.30;2.00;;;;;;;16.90;87.47;101150.31;7386606;19;20086;-69
2022/05/19 04:50:12;;;;;;;7.50;2.05;;;;;;;16.92;86.58;101150.09;7390419;19;20014;-68
2022/05/19 04:52:39;;;;;;;7.18;1.75;;;;;;;16.90;87.22;101154.81;7389386;19;20019;-69
2022/05/19 04:55:07;;;;;;;6.25;1.73;;;;;;;16.91;87.62;101156.47;7386341;19;20034;-67
2022/05/19 04:57:36;;;;;;;5.70;2.00;;;;;;;16.90;87.34;101166.25;7389671;19;20015;-70
2022/05/19 05:00:06;;;;;;;6.63;2.40;;;;;;;16.91;87.07;101167.91;7388694;19;20036;-69
2022/05/19 05:02:33;;;;;;;4.95;1.95;;;;;;;16.87;87.55;101171.94;7387047;19;20051;-68
2022/05/19 05:05:01;;;;;;;8.15;2.20;;;;;;;16.87;88.39;101160.47;7386919;19;20006;-68
2022/05/19 05:09:56;;;;;;;6.05;2.50;;;;;;;16.90;88.11;101170.75;7392945;19;20007;-68
2022/05/19 05:12:23;;;;;;;8.18;2.60;;;;;;;16.93;88.37;101181.84;7386361;19;20007;-68
2022/05/19 05:14:52;;;;;;;6.88;3.50;;;;;;;16.95;88.62;101165.69;7392201;19;20428;-69
2022/05/19 05:17:18;;;;;;;7.78;3.45;;;;;;;16.95;88.13;101166.53;7389455;19;20003;-68
2022/05/19 05:19:46;;;;;;;13.27;4.75;;;;;;;16.99;88.79;101169.63;7389382;19;20019;-69
2022/05/19 05:22:13;;;;;;;9.98;5.00;;;;;;;17.02;88.11;101174.56;7387359;19;20027;-69
2022/05/19 05:24:39;;;;;;;9.45;5.13;;;;;;;17.01;88.42;101175.59;7388192;19;20017;-68
2022/05/19 05:27:06;;;;;;;12.85;5.50;;;;;;;17.00;88.64;101182.75;7386460;19;20014;-68
2022/05/19 05:29:34;;;;;;;10.63;5.70;;;;;;;16.99;87.52;101182.94;7386683;19;20010;-68
2022/05/19 05:32:03;;;;;;;14.27;6.57;;;;;;;17.00;87.68;101193.38;7388226;19;20195;-68
2022/05/19 05:34:30;;;;;;;13.95;5.97;;;;;;;17.04;87.60;101188.50;7385614;19;20019;-70
2022/05/19 05:36:57;;;;;;;14.50;6.05;;;;;;;17.03;87.03;101186.84;7385802;19;20040;-69
2022/05/19 05:39:25;;;;;;;12.13;5.65;;;;;;;16.98;87.58;101184.75;7387778;19;20015;-69
2022/05/19 05:41:51;;;;;;;13.63;5.38;;;;;;;16.97;87.39;101185.75;7387372;19;20003;-69
2022/05/19 05:44:19;;;;;;;12.32;5.85;;;;;;;16.97;87.63;101184.94;7384932;19;20014;-69
2022/05/19 05:46:45;;;;;;;9.82;5.32;;;;;;;17.01;86.67;101179.09;7388266;19;20011;-68
2022/05/19 05:49:12;;;;;;;10.38;5.93;;;;;;;17.03;87.34;101168.25;7384774;19;20024;-68
2022/05/19 05:51:39;;;;;;;11.88;5.32;;;;;;;17.03;87.67;101176.22;7387115;19;20003;-69
2022/05/19 05:54:06;;;;;;;12.20;4.80;;;;;;;17.04;87.70;101192.00;7384779;19;20011;-68
2022/05/19 05:56:34;;;;;;;12.57;4.68;;;;;;;17.07;87.26;101190.78;7387945;19;20497;-68
2022/05/19 06:01:28;;;;;;;10.52;4.25;;;;;;;17.09;87.11;101202.91;7394773;19;20006;-69
2022/05/19 06:03:56;;;;;;;10.40;4.80;;;;;;;17.11;87.29;101197.41;7395834;19;20357;-68
2022/05/19 06:06:25;;;;;;;10.25;5.90;;;;;;;17.14;87.48;101205.00;7397554;19;20042;-70
2022/05/19 06:08:52;;;;;;;13.70;5.32;;;;;;;17.21;87.14;101219.22;7395163;19;20111;-70
2022/05/19 06:11:19;;;;;;;9.05;4.20;;;;;;;17.20;85.42;101241.50;7396590;19;20014;-69
2022/05/19 06:13:49;;;;;;;10.38;3.78;;;;;;;17.21;85.22;101260.94;7394359;19;20026;-69
2022/05/19 06:16:16;;;;;;;8.85;3.72;;;;;;;17.23;85.48;101274.88;7391301;19;20027;-69
2022/05/19 06:18:43;;;;;;;8.13;5.90;;;;;;;17.24;85.37;101265.88;7396543;19;20463;-68
2022/05/19 06:21:11;;;;;;;5.72;2.30;;;;;;;17.26;84.85;101255.88;7394383;19;20006;-68
2022/05/19 06:23:39;;;;;;;6.15;2.10;;;;;;;17.29;83.04;101244.88;7393297;19;20022;-68
2022/05/19 06:26:06;;;;;;;5.38;1.38;;;;;;;17.30;81.41;101252.66;7392646;19;20018;-68
2022/05/19 06:28:34;;;;;;;6.20;1.60;;;;;;;17.26;79.87;101279.81;7392382;19;20037;-68
2022/05/19 06:31:02;;;;;;;6.90;1.73;;;;;;;17.23;80.58;101307.59;7391048;19;20693;-69
2022/05/19 06:33:29;;;;;;;6.35;1.52;;;;;;;17.22;81.28;101311.28;7393320;19;20560;-70
2022/05/19 06:35:57;;;;;;;4.63;1.40;;;;;;;17.24;82.57;101293.31;7395043;19;20013;-68
2022/05/19 06:38:24;;;;;;;6.53;2.28;;;;;;;17.30;83.73;101275.78;7393703;19;20082;-69
2022/05/19 06:42:00;;;;;;;6.25;2.30;;;;;;;17.36;83.73;101259.09;7391954;19;20015;-68
2022/05/19 06:43:39;;;;;;;5.70;2.00;;;;;;;17.36;82.12;101322.94;7394086;19;20015;-69
2022/05/19 06:46:09;;;;;;;9.05;2.35;;;;;;;17.38;83.28;101319.06;7390039;19;20272;-70
2022/05/19 06:48:38;;;;;;;6.50;2.53;;;;;;;17.41;83.56;101293.94;7388056;19;20017;-69
2022/05/19 06:51:06;;;;;;;6.22;3.38;;;;;;;17.39;83.76;101248.88;7393407;19;20725;-69
2022/05/19 06:53:48;;;;;;;7.70;2.00;;;;;;;17.40;83.65;101201.81;7394687;19;20018;-68
2022/05/19 06:56:15;;;;;;;8.35;2.15;;;;;;;17.40;82.27;101196.50;7393120;19;20013;-68
2022/05/19 06:58:42;;;;;;;4.70;1.88;;;;;;;17.36;82.58;101204.03;7397030;19;20140;-68
2022/05/19 07:01:09;;;;;;;3.63;0.93;;;;;;;17.35;80.67;101206.88;7394587;19;20014;-69
2022/05/19 07:03:36;;;;;;;5.63;0.95;;;;;;;17.30;80.95;101199.47;7393603;19;20090;-68
2022/05/19 07:06:09;;;;;;;5.10;1.00;;;;;;;17.28;81.30;101205.97;7395805;19;20126;-68
2022/05/19 07:08:38;;;;;;;3.22;0.73;;;;;;;17.26;81.60;101226.63;7392797;19;20010;-68
2022/05/19 07:11:05;;;;;;;4.72;0.82;;;;;;;17.23;82.03;101275.69;7388551;19;20428;-69
2022/05/19 07:13:33;;;;;;;3.03;0.70;;;;;;;17.27;82.29;101287.59;7390269;19;20023;-68
2022/05/19 07:16:00;;;;;;;5.15;0.90;;;;;;;17.30;82.89;101278.44;7392217;19;20052;-70
2022/05/19 07:18:45;;;;;;;8.50;2.38;;;;;;;17.35;83.13;101257.44;7387795;19;20017;-68
2022/05/19 07:21:12;;;;;;;4.65;1.92;;;;;;;17.30;81.61;101260.66;7395138;19;20014;-70
2022/05/19 07:23:42;;;;;;;4.03;1.23;;;;;;;17.31;81.40;101277.44;7396117;19;20007;-69
2022/05/19 07:26:14;;;;;;;3.42;0.85;;;;;;;17.27;81.31;101274.31;7394374;19;20132;-69
2022/05/19 07:28:41;;;;;;;3.00;0.90;;;;;;;17.21;80.88;101283.03;7391357;19;20086;-69
2022/05/19 07:31:08;;;;;;;3.83;1.10;;;;;;;17.21;81.96;101284.88;7391717;19;20018;-70
2022/05/19 07:33:36;;;;;;;8.32;4.60;;;;;;;17.19;81.84;101289.53;7392325;19;20018;-68
2022/05/19 07:36:06;;;;;;;4.50;1.60;;;;;;;17.18;82.87;101282.56;7393663;19;20413;-70
2022/05/19 07:38:31;;;;;;;4.53;0.98;;;;;;;17.17;82.22;101273.75;7391302;19;20015;-69
2022/05/19 07:40:58;;;;;;;8.43;3.95;;;;;;;17.16;82.82;101277.47;7391179;19;20010;-70
2022/05/19 07:45:57;;;;;;;9.27;3.30;;;;;;;17.23;85.13;101302.28;7392522;19;20476;-69
2022/05/19 07:48:25;;;;;;;6.00;1.00;;;;;;;17.26;83.34;101309.91;7388991;19;20010;-69
2022/05/19 07:50:52;;;;;;;4.55;1.05;;;;;;;17.33;84.35;101309.97;7391267;19;20022;-69
2022/05/19 07:53:21;;;;;;;7.88;3.25;;;;;;;17.34;82.07;101301.81;7393349;19;20019;-69
2022/05/19 07:55:50;;;;;;;7.75;1.10;;;;;;;17.39;81.44;101301.28;7391240;19;20015;-70
2022/05/19 07:58:22;;;;;;;3.17;0.80;;;;;;;17.44;80.63;101313.00;7389774;19;20523;-70
2022/05/19 08:00:52;;;;;;;5.13;0.80;;;;;;;17.43;79.22;101321.16;7393375;19;20014;-70
2022/05/19 08:03:24;;;;;;;3.22;1.00;;;;;;;17.42;78.38;101324.88;7392422;19;20017;-70
2022/05/19 08:05:52;;;;;;;4.93;0.80;;;;;;;17.40;78.51;101321.53;7391383;19;20651;-68
2022/05/19 08:08:20;;;;;;;2.38;0.75;;;;;;;17.40;79.53;101319.72;7388744;19;20085;-70
2022/05/19 08:10:48;;;;;;;3.85;2.97;;;;;;;17.43;81.18;101329.16;7390686;19;20014;-69
2022/05/19 08:15:52;;;;;;;1.85;0.60;;;;;;;17.41;77.39;101313.38;7389660;19;20011;-68
2022/05/19 08:18:21;;;;;;;4.70;0.82;;;;;;;17.41;77.87;101325.88;7389654;19;20011;-68
2022/05/19 08:20:51;;;;;;;3.75;0.70;;;;;;;17.45;79.09;101324.47;7390600;19;20514;-69
2022/05/19 08:23:24;;;;;;;2.63;0.50;;;;;;;17.48;78.63;101327.59;7385494;19;20014;-69
2022/05/19 08:25:53;;;;;;;4.38;0.93;;;;;;;17.51;78.32;101327.22;7392486;19;20025;-68
2022/05/19 08:28:20;;;;;;;5.03;0.90;;;;;;;17.52;76.73;101325.41;7390812;19;20023;-67
2022/05/19 08:30:51;;;;;;;4.57;0.60;;;;;;;17.52;77.20;101352.00;7390228;19;20015;-70
2022/05/19 08:33:20;;;;;;;4.57;0.73;;;;;;;17.59;77.71;101352.94;7391141;19;20674;-71
2022/05/19 08:35:49;;;;;;;3.97;0.60;;;;;;;17.66;78.12;101356.50;7390800;19;20041;-68
2022/05/19 08:38:16;;;;;;;4.57;0.70;;;;;;;17.73;78.63;101357.41;7389918;19;20006;-68
2022/05/19 08:40:49;;;;;;;4.35;1.05;;;;;;;17.72;78.73;101352.28;7393062;19;20467;-70
2022/05/19 08:43:33;;;;;;;6.63;0.90;;;;;;;17.79;78.47;101364.66;7421238;19;20356;-68
2022/05/19 08:46:03;;;;;;;2.97;0.63;;;;;;;17.80;78.18;101365.47;7427474;19;20038;-69
2022/05/19 08:48:32;;;;;;;5.88;0.70;;;;;;;17.81;78.42;101383.94;7423737;19;20031;-69
2022/05/19 08:51:24;;;;;;;6.45;0.95;;;;;;;17.87;79.38;101393.03;7421324;19;20392;-68
2022/05/19 08:54:05;;;;;;;5.00;1.08;;;;;;;17.92;78.24;101407.44;7423302;19;20344;-69
2022/05/19 08:56:39;;;;;;;2.70;0.70;;;;;;;17.94;76.82;101404.56;7423861;19;20474;-69
2022/05/19 08:59:25;;;;;;;2.08;0.65;;;;;;;17.97;76.00;101409.53;7423346;19;20020;-68
2022/05/19 09:01:56;;;;;;;3.15;0.98;;;;;;;18.00;76.19;101418.97;7426622;19;20074;-68
2022/05/19 09:04:32;;;;;;;9.73;1.13;;;;;;;18.03;77.45;101410.63;7424524;19;20110;-69
2022/05/19 09:10:13;;;;;;;4.75;0.80;;;;;;;18.10;76.43;101417.66;7426649;19;20034;-68
2022/05/19 09:12:45;;;;;;;4.60;0.93;;;;;;;18.15;76.86;101403.78;7422257;19;20393;-70
2022/05/19 09:15:15;;;;;;;6.78;0.80;;;;;;;18.26;77.08;101385.47;7422984;19;20011;-68
2022/05/19 09:17:46;;;;;;;4.60;1.00;;;;;;;18.38;76.40;101385.81;7420317;19;20154;-70
2022/05/19 09:20:18;;;;;;;5.68;0.73;;;;;;;18.55;76.17;101389.06;7421876;19;20030;-69
2022/05/19 09:22:45;;;;;;;1.55;0.50;;;;;;;18.71;75.25;101392.28;7419322;19;20018;-70
2022/05/19 09:25:16;;;;;;;5.18;0.70;;;;;;;18.76;73.25;101399.72;7423633;19;20410;-69
2022/05/19 09:27:49;;;;;;;11.90;0.73;;;;;;;18.75;72.10;101390.06;7423987;19;20133;-68
2022/05/19 09:30:47;;;;;;;3.42;0.90;;;;;;;18.75;72.97;101392.72;7421358;19;20017;-70
2022/05/19 09:33:18;;;;;;;4.38;0.70;;;;;;;18.70;73.32;101400.47;7395943;19;20022;-69
2022/05/19 09:36:04;;;;;;;6.22;1.05;;;;;;;18.67;73.36;101404.34;7418993;19;20465;-68
2022/05/19 09:38:47;;;;;;;3.95;0.80;;;;;;;18.69;72.68;101417.50;7419140;19;20098;-69
2022/05/19 09:41:45;;;;;;;3.35;0.80;;;;;;;18.74;71.87;101407.09;7422598;19;20027;-69
2022/05/19 09:44:48;;;;;;;4.05;0.60;;;;;;;18.82;71.52;101406.94;7421263;19;20006;-69
2022/05/19 09:47:25;;;;;;;5.45;0.90;;;;;;;18.92;71.18;101407.44;7419227;19;20081;-69
2022/05/19 09:50:29;;;;;;;4.40;0.55;;;;;;;19.05;70.45;101412.88;7422880;19;20022;-68
2022/05/19 09:53:05;;;;;;;2.05;0.82;;;;;;;19.14;69.36;101410.91;7413920;19;20310;-69
2022/05/19 09:55:39;;;;;;;;;;;;;;;19.30;69.97;101415.13;7395944;19;20006;-68
2022/05/19 09:58:14;;;;;;;4.65;1.40;;;;;;;19.41;69.86;101423.38;7391869;19;19915;-69
2022/05/19 10:00:51;;;;;;;5.00;0.90;;;;;;;19.56;69.30;101423.28;7395682;19;20010;-70
2022/05/19 10:03:44;;;;;;;4.97;0.73;;;;;;;19.52;67.68;101420.19;7392735;19;20070;-69
2022/05/19 10:06:17;;;;;;;5.38;0.70;;;;;;;19.54;68.57;101428.03;7396351;19;20019;-69
2022/05/19 10:08:45;;;;;;;2.28;0.60;;;;;;;19.56;69.67;101425.97;7392440;19;20010;-69
2022/05/19 10:11:17;;;;;;;3.65;1.00;;;;;;;19.57;68.61;101428.44;7391797;19;20010;-68
2022/05/19 10:14:02;;;;;;;3.30;0.70;;;;;;;19.59;68.20;101437.09;7389050;19;20013;-69
2022/05/19 10:16:31;;;;;;;2.95;0.68;;;;;;;19.69;68.47;101430.56;7392592;19;20011;-68
2022/05/19 10:19:01;;;;;;;4.55;0.60;;;;;;;19.72;67.70;101433.66;7395205;19;20373;-69
2022/05/19 10:21:53;;;;;;;2.67;0.60;;;;;;;19.71;67.57;101429.34;7393419;19;20015;-68
2022/05/19 10:32:18;;;;;;;2.35;0.50;;;;;;;19.86;65.19;101427.34;7389462;19;20495;-68
2022/05/19 10:34:58;;;;;;;2.53;0.40;;;;;;;19.93;65.31;101430.06;7387705;19;20018;-69
2022/05/19 10:37:43;;;;;;;2.75;0.40;;;;;;;19.96;65.29;101435.03;7389557;19;20022;-68
2022/05/19 10:40:22;;;;;;;2.90;0.47;;;;;;;19.98;64.41;101430.28;7389355;19;20082;-70
2022/05/19 10:43:00;;;;;;;3.05;0.60;;;;;;;19.95;63.32;101425.34;7389047;19;20018;-68
2022/05/19 10:45:33;;;;;;;1.85;0.45;;;;;;;19.96;63.50;101421.66;7390996;19;20010;-69
2022/05/19 10:48:03;;;;;;;2.65;0.40;;;;;;;19.95;63.78;101415.50;7386578;19;20011;-69
2022/05/19 10:50:35;;;;;;;2.97;0.50;;;;;;;20.03;63.76;101411.81;7389603;19;20384;-69
2022/05/19 10:53:04;;;;;;;5.22;0.40;;;;;;;20.11;62.85;101410.81;7390096;19;20039;-68
2022/05/19 10:55:35;;;;;;;1.92;0.40;;;;;;;20.21;63.60;101420.09;7391021;19;20011;-69
2022/05/19 10:58:04;;;;;;;5.60;0.70;;;;;;;20.32;61.12;101411.50;7391405;19;20014;-69
2022/05/19 11:00:42;;;;;;;6.43;0.65;;;;;;;20.44;61.11;101419.75;7387269;19;20011;-70
2022/05/19 11:03:30;;;;;;;1.98;0.30;;;;;;;20.58;60.62;101425.94;7389621;19;20028;-70
2022/05/19 11:05:58;;;;;;;2.53;0.40;;;;;;;20.62;56.68;101421.88;7389183;19;20015;-69
2022/05/19 11:08:30;;;;;;;4.88;0.40;;;;;;;20.70;56.91;101429.69;7388588;19;20014;-71
2022/05/19 11:11:05;;;;;;;2.63;0.43;;;;;;;20.76;58.20;101418.16;7387281;19;20010;-69
2022/05/19 11:13:37;;;;;;;5.85;0.35;;;;;;;20.81;58.44;101421.06;7387291;19;20006;-68
2022/05/19 11:16:10;;;;;;;3.50;0.40;;;;;;;20.87;57.13;101417.56;7391389;19;20011;-68
2022/05/19 11:18:38;;;;;;;6.38;0.68;;;;;;;20.87;57.09;101420.22;7389481;19;20007;-69
2022/05/19 11:21:20;;;;;;;3.58;0.30;;;;;;;20.92;56.94;101421.25;7392034;19;20011;-68
2022/05/19 11:23:53;;;;;;;4.75;0.30;;;;;;;20.98;54.49;101419.59;7385587;19;20066;-68
2022/05/19 11:26:26;;;;;;;3.65;0.40;;;;;;;20.93;54.21;101414.84;7390158;19;20096;-68
2022/05/19 11:28:58;;;;;;;3.22;0.40;;;;;;;20.94;54.67;101426.38;7387687;19;20007;-69
2022/05/19 11:31:30;;;;;;;1.23;0.30;;;;;;;20.98;54.07;101424.94;7386928;19;20003;-69
2022/05/19 11:33:59;;;;;;;;;;;;;;;21.02;53.37;101425.38;7389669;19;20029;-69
2022/05/19 11:36:37;;;;;;;4.70;0.50;;;;;;;21.04;54.26;101424.13;7388073;19;19922;-69
2022/05/19 11:39:07;;;;;;;3.10;0.50;;;;;;;21.08;54.20;101430.69;7387862;19;20014;-68
2022/05/19 11:41:36;;;;;;;2.50;0.40;;;;;;;21.10;54.49;101428.66;7386315;19;20027;-70
2022/05/19 11:44:06;;;;;;;3.50;0.52;;;;;;;21.14;53.38;101427.25;7388628;19;20512;-69
2022/05/19 11:46:40;;;;;;;1.95;0.40;;;;;;;21.17;49.58;101426.84;7390403;19;20118;-69
2022/05/19 11:56:54;;;;;;;4.57;0.70;;;;;;;21.35;52.30;101426.19;7391164;19;20006;-68
2022/05/19 11:59:24;;;;;;;2.33;0.40;;;;;;;21.40;52.55;101421.03;7388682;19;20011;-69
2022/05/19 12:01:52;;;;;;;2.92;0.50;;;;;;;21.42;50.91;101428.84;7391082;19;20653;-69
2022/05/19 12:04:24;;;;;;;6.75;0.60;;;;;;;21.32;51.75;101427.44;7387524;19;20242;-68
2022/05/19 12:07:00;;;;;;;3.28;0.45;;;;;;;21.21;51.89;101424.56;7390524;19;20040;-68
2022/05/19 12:09:33;;;;;;;3.90;0.50;;;;;;;21.18;50.33;101425.78;7389876;19;20560;-69
2022/05/19 12:12:14;;;;;;;1.85;0.75;;;;;;;21.19;50.96;101426.63;7389167;19;20248;-69